AirNav   Everest Fuels
 
 803 users online  

40NE Landgren Ranch Airport
Bartlett, Nebraska, USA

GOING TO BARTLETT?


FAA INFORMATION EFFECTIVE 03 NOVEMBER 2022

Location

FAA Identifier: 40NE
Lat/Long: 41-58-30.0250N 098-30-57.2800W
41-58.500417N 098-30.954667W
41.9750069,-98.5159111
(estimated)
Elevation: 2100 ft. / 640 m (estimated)
Variation: 08E (1985)
From city: 6 miles NE of BARTLETT, NE
Time zone: UTC -6 (UTC -5 during Daylight Saving Time)
Zip code: 68622

Airport Operations

Airport use: Private use. Permission required prior to landing
Activation date: 02/1982
Control tower: no
ARTCC: MINNEAPOLIS CENTER
FSS: COLUMBUS FLIGHT SERVICE STATION
Attendance: UNATNDD
Wind indicator: yes
Segmented circle: no

Nearby radio navigation aids

VOR radial/distance  VOR name  Freq  Var
ONLr156/30.7O'NEILL VORTAC113.9010E
OBHr342/36.7WOLBACH VORTAC114.8007E

 
NDB name  Hdg/Dist  Freq  Var  ID
ORD038/28.635605EODX --- -.. -..-

Airport Services

Runway Information

Runway 13/31

Dimensions: 3200 x 125 ft. / 975 x 38 m
Surface: turf
RUNWAY 13  RUNWAY 31
Traffic pattern: leftleft

Airport Ownership and Management from official FAA records

Ownership: Privately-owned
Owner: JAMES LANDGREN
83893 STONE HOUSE AVE
BARTLETT, NE 68622
Phone 308-654-3221
Manager: JAMES LANDGREN
83893 STONE HOUSE AVE
BARTLETT, NE 68622
Phone 308-654-3221

Airport Operational Statistics

Aircraft based on the field: 2
Single engine airplanes: 2
    

Additional Remarks

A52-13 30-50' TREES SURROUND AIRPORT.
FOR CD CTC MINNEAPOLIS ARTCC AT 651-463-5588.

Instrument Procedures

There are no published instrument procedures at 40NE.

Some nearby airports with instrument procedures:

4V9 - Antelope County Airport (23 nm E)
KBVN - Albion Municipal Airport (25 nm SE)
KODX - Evelyn Sharp Field Airport (29 nm SW)
KONL - The O'Neill Municipal Airport-John L Baker Field (31 nm N)
KBUB - Cram Field Airport (31 nm W)
 
Loc | Ops | Rwys | IFR | FBO | Links
Com | Nav | Svcs | Stats | Notes
Area around 40NE (Landgren Ranch Airport)
 
Road maps at: MapQuest Bing Google
 
Aerial photo
No photo
 
Sectional chart

 
Airport distance calculator
Flying to Landgren Ranch Airport? Find the distance to fly.

From to 40NE

Sunrise and sunset
Times for 30-Nov-2022
 Local
(UTC-6)
 Zulu
(UTC)
Morning civil twilight07:1113:11
Sunrise07:4213:42
Sunset17:0323:03
Evening civil twilight17:3423:34

Current date and time
Zulu (UTC)  01-Dec-2022 04:34:44
Local (UTC-6)  30-Nov-2022 22:34:44
 
METAR
KBVN 
25nm SE 
010415Z AUTO 14008KT 10SM CLR M09/M13 A3024 RMK AO2 T10861126
KODX 
29nm SW 
010353Z AUTO 14010KT 10SM CLR M06/M12 A3018 RMK AO2 SLP255 T10561117
KONL 
30nm N 
010415Z AUTO 16012KT 10SM CLR M07/M13 A3016 RMK AO2 T10701126
KOFK 
48nm E 
010356Z AUTO 17009KT 10SM CLR M07/M13 A3027 RMK AO2 SLP278 T10671128
TAF
KOFK 
48nm E 
302102Z 3021/0118 25009KT P6SM SKC FM302300 16008KT P6SM SKC FM010700 16012KT P6SM SKC WS013/20050KT FM011600 20020G35KT P6SM SKC
NOTAMs
Click for the latest NOTAMs
NOTAMs are issued by the DoD/FAA and will open in a separate window not controlled by AirNav.

 

 
 

Would you like to see your business listed on this page?

 If your business provides an interesting product or service to pilots, flight crews, aircraft, or users of the Landgren Ranch Airport, you should consider listing it here.  To start the listing process, click on the button below
 
Add a business
 

Other Pages about Landgren Ranch Airport

Update a link
 
Copyright © AirNav, LLC. All rights reserved. Privacy Policy  Contact